Time;durP1;ratioP1;P1;durP2;ratioP2;P2;SDS_P1;SDS_P2;PMS_P1;PMS_P2;Temp;Humidity;BMP_temperature;BMP_pressure;BME280_temperature;BME280_humidity;BME280_pressure;Samples;Min_cycle;Max_cycle;Signal;HPM_P1;HPM_P2
2021/12/29 00:00:38;;;;;;;28.00;12.50;;;-1.00;99.90;;;;;;5107308;28;20248;-64
2021/12/29 00:03:05;;;;;;;23.37;11.90;;;-1.20;99.90;;;;;;5078932;28;20199;-64
2021/12/29 00:05:32;;;;;;;33.43;13.97;;;-1.20;99.90;;;;;;5087744;28;20579;-64
2021/12/29 00:07:59;;;;;;;25.33;12.47;;;-1.00;99.90;;;;;;5110601;28;20199;-64
2021/12/29 00:10:28;;;;;;;27.17;11.13;;;-1.10;99.90;;;;;;5103141;28;20216;-64
2021/12/29 00:12:56;;;;;;;36.93;13.93;;;-1.10;99.90;;;;;;5106552;28;20191;-64
2021/12/29 00:15:27;;;;;;;31.50;13.57;;;-1.10;99.90;;;;;;5108705;28;20200;-64
2021/12/29 00:17:57;;;;;;;34.57;14.80;;;-1.10;99.90;;;;;;5095497;28;20188;-64
2021/12/29 00:20:28;;;;;;;32.67;14.37;;;-1.10;99.90;;;;;;5093356;28;20231;-64
2021/12/29 00:22:56;;;;;;;28.90;14.00;;;-1.00;99.90;;;;;;5105834;28;20235;-64
2021/12/29 00:25:23;;;;;;;28.43;13.27;;;-1.00;99.90;;;;;;5080392;28;20279;-65
2021/12/29 00:27:54;;;;;;;29.67;13.33;;;-1.00;99.90;;;;;;5076432;28;20299;-64
2021/12/29 00:30:23;;;;;;;26.40;12.47;;;-1.00;99.90;;;;;;5098352;28;20191;-64
2021/12/29 00:32:56;;;;;;;29.30;13.30;;;-0.90;99.90;;;;;;5105572;28;20191;-65
2021/12/29 00:35:43;;;;;;;28.67;13.63;;;-1.10;99.90;;;;;;5100763;28;20247;-63
2021/12/29 00:38:28;;;;;;;28.80;13.63;;;-1.00;99.90;;;;;;5106361;28;20228;-63
2021/12/29 00:41:14;;;;;;;38.07;16.23;;;-1.10;99.90;;;;;;5107720;28;20199;-63
2021/12/29 00:44:03;;;;;;;28.00;13.07;;;-1.10;99.90;;;;;;5101701;28;20284;-62
2021/12/29 00:46:53;;;;;;;27.07;12.00;;;-1.10;99.90;;;;;;5103027;28;20730;-62
2021/12/29 00:49:20;;;;;;;25.33;11.33;;;-1.10;99.90;;;;;;5106879;28;20220;-62
2021/12/29 00:51:50;;;;;;;24.60;11.43;;;-1.10;99.90;;;;;;5105323;27;20187;-63
2021/12/29 00:54:17;;;;;;;29.63;12.67;;;-1.20;99.90;;;;;;5081759;28;20204;-62
2021/12/29 00:56:45;;;;;;;26.17;11.77;;;-1.20;99.90;;;;;;5085746;28;20287;-62
2021/12/29 00:59:13;;;;;;;31.27;13.83;;;-1.10;99.90;;;;;;5098156;28;20199;-63
2021/12/29 01:01:40;;;;;;;28.43;13.00;;;-1.10;99.90;;;;;;5103229;28;20191;-63
2021/12/29 01:04:08;;;;;;;23.23;10.73;;;-1.10;99.90;;;;;;5102716;28;20605;-63
2021/12/29 01:06:35;;;;;;;28.37;11.83;;;-1.10;99.90;;;;;;5085931;28;20557;-63
2021/12/29 01:09:02;;;;;;;29.93;12.40;;;-1.10;99.90;;;;;;5091784;28;20261;-62
2021/12/29 01:11:29;;;;;;;26.17;12.30;;;-1.10;99.90;;;;;;5095395;28;20202;-64
2021/12/29 01:13:56;;;;;;;27.00;11.90;;;-1.10;99.90;;;;;;5090564;28;20313;-63
2021/12/29 01:16:39;;;;;;;27.57;12.93;;;-1.10;99.90;;;;;;5089783;28;20812;-63
2021/12/29 01:19:12;;;;;;;26.90;11.87;;;-1.20;99.90;;;;;;5108379;28;20204;-63
2021/12/29 01:21:42;;;;;;;27.00;11.40;;;-1.10;99.90;;;;;;5080402;28;20199;-62
2021/12/29 01:24:10;;;;;;;21.87;10.43;;;-1.10;99.90;;;;;;5108866;28;20862;-64
2021/12/29 01:26:37;;;;;;;30.47;12.30;;;-1.10;99.90;;;;;;5099548;28;20257;-63
2021/12/29 01:29:05;;;;;;;22.53;11.40;;;-1.10;99.90;;;;;;5084229;28;20199;-63
2021/12/29 01:31:34;;;;;;;24.57;12.03;;;-1.00;99.90;;;;;;5097606;28;20226;-64
2021/12/29 01:34:04;;;;;;;23.93;10.57;;;-0.90;99.90;;;;;;5086108;28;20287;-62
2021/12/29 01:36:32;;;;;;;26.37;12.47;;;-0.90;99.90;;;;;;5080319;28;20203;-63
2021/12/29 01:39:02;;;;;;;28.87;12.60;;;-1.10;99.90;;;;;;5104832;28;20268;-62
2021/12/29 01:41:29;;;;;;;26.83;12.23;;;-1.00;99.90;;;;;;5105429;28;20195;-63
2021/12/29 01:44:00;;;;;;;25.20;11.43;;;-1.00;99.90;;;;;;5105298;28;20378;-63
2021/12/29 01:46:30;;;;;;;22.17;10.13;;;-1.00;99.90;;;;;;5091788;28;20203;-64
2021/12/29 01:48:59;;;;;;;24.93;10.57;;;-1.00;99.90;;;;;;5106206;28;20257;-63
2021/12/29 01:51:26;;;;;;;29.90;13.10;;;-1.00;99.90;;;;;;5100693;28;20249;-63
2021/12/29 01:54:04;;;;;;;25.13;11.33;;;-1.00;99.90;;;;;;5093957;28;20192;-62
2021/12/29 01:56:32;;;;;;;26.43;11.03;;;-1.00;99.90;;;;;;5102292;28;20188;-63
2021/12/29 01:59:00;;;;;;;22.60;10.87;;;-1.00;99.90;;;;;;5076124;28;20623;-63
2021/12/29 02:01:27;;;;;;;24.60;10.47;;;-1.00;99.90;;;;;;5104805;28;20196;-63
2021/12/29 02:03:55;;;;;;;22.87;10.20;;;-1.00;99.90;;;;;;5075013;28;20287;-63
2021/12/29 02:06:24;;;;;;;22.00;10.53;;;-1.00;99.90;;;;;;5108923;28;20201;-64
2021/12/29 02:08:53;;;;;;;24.90;10.97;;;-1.00;99.90;;;;;;5076880;28;20555;-64
2021/12/29 02:11:25;;;;;;;28.80;11.97;;;-1.00;99.90;;;;;;5075099;28;20204;-64
2021/12/29 02:13:52;;;;;;;25.13;11.80;;;-1.00;99.90;;;;;;5077818;28;20196;-64
2021/12/29 02:16:19;;;;;;;26.97;12.03;;;-1.00;99.90;;;;;;5116609;27;20199;-63
2021/12/29 02:18:52;;;;;;;30.67;11.73;;;-1.00;99.90;;;;;;5103744;28;20196;-64
2021/12/29 02:21:21;;;;;;;29.80;11.83;;;-1.00;99.90;;;;;;5100406;28;20231;-63
2021/12/29 02:24:15;;;;;;;26.43;11.43;;;-1.00;99.90;;;;;;5109961;28;20235;-64
2021/12/29 02:26:44;;;;;;;26.70;11.47;;;-1.00;99.90;;;;;;5084492;28;20705;-64
2021/12/29 02:29:12;;;;;;;27.43;11.90;;;-1.00;99.90;;;;;;5109197;28;20260;-64
2021/12/29 02:31:40;;;;;;;27.13;11.67;;;-1.00;99.90;;;;;;5101749;28;20219;-64
2021/12/29 02:34:10;;;;;;;29.10;12.00;;;-1.00;99.90;;;;;;5106236;28;20652;-63
2021/12/29 02:36:43;;;;;;;33.53;14.03;;;-1.10;99.90;;;;;;5112166;28;20261;-64
2021/12/29 02:39:12;;;;;;;29.77;12.60;;;-1.00;99.90;;;;;;5106023;28;20546;-62
2021/12/29 02:41:43;;;;;;;25.43;11.60;;;-1.00;99.90;;;;;;5110698;28;20199;-62
2021/12/29 02:44:15;;;;;;;26.53;11.50;;;-1.00;99.90;;;;;;5107959;28;20192;-63
2021/12/29 02:46:44;;;;;;;22.60;10.17;;;-1.00;99.90;;;;;;5111332;28;20948;-62
2021/12/29 02:49:11;;;;;;;21.37;10.60;;;-1.00;99.90;;;;;;5105342;28;20275;-63
2021/12/29 02:51:40;;;;;;;23.50;10.53;;;-1.00;99.90;;;;;;5083413;27;20257;-63
2021/12/29 02:54:07;;;;;;;28.67;11.63;;;-1.00;99.90;;;;;;5085243;28;20287;-63
2021/12/29 02:56:35;;;;;;;29.97;12.87;;;-1.00;99.90;;;;;;5085107;28;20214;-63
2021/12/29 02:59:02;;;;;;;20.87;10.17;;;-1.00;99.90;;;;;;5103823;28;20275;-62
2021/12/29 03:01:30;;;;;;;21.77;9.93;;;-0.90;99.90;;;;;;5092199;28;20759;-62
2021/12/29 03:03:59;;;;;;;38.07;14.40;;;-1.00;99.90;;;;;;5112102;28;20230;-63
2021/12/29 03:06:26;;;;;;;27.17;11.50;;;-1.00;99.90;;;;;;5107693;28;20196;-63
2021/12/29 03:08:55;;;;;;;31.33;12.13;;;-0.80;99.90;;;;;;5097093;28;20279;-64
2021/12/29 03:11:22;;;;;;;29.27;13.43;;;-1.00;99.90;;;;;;5093639;28;20187;-63
2021/12/29 03:13:50;;;;;;;32.80;14.73;;;-0.90;99.90;;;;;;5075075;28;20215;-63
2021/12/29 03:16:17;;;;;;;34.03;14.17;;;-0.90;99.90;;;;;;5103909;28;20510;-62
2021/12/29 03:18:44;;;;;;;25.90;12.47;;;-0.90;99.90;;;;;;5098050;28;20665;-61
2021/12/29 03:21:12;;;;;;;30.27;12.40;;;-0.90;99.90;;;;;;5107334;28;20296;-62
2021/12/29 03:23:40;;;;;;;26.23;11.27;;;-0.90;99.90;;;;;;5101552;28;20236;-64
2021/12/29 03:26:08;;;;;;;23.10;10.80;;;-0.90;99.90;;;;;;5077630;28;20193;-62
2021/12/29 03:28:39;;;;;;;24.60;10.50;;;-0.90;99.90;;;;;;5085952;28;20195;-64
2021/12/29 03:31:10;;;;;;;27.90;11.90;;;-0.90;99.90;;;;;;5085640;28;20648;-62
2021/12/29 03:33:38;;;;;;;27.70;11.23;;;-0.80;99.90;;;;;;5096925;28;20196;-61
2021/12/29 03:36:06;;;;;;;28.27;11.33;;;-0.80;99.90;;;;;;5090219;28;20566;-61
2021/12/29 03:38:36;;;;;;;25.40;11.43;;;-0.90;99.90;;;;;;5105173;28;20200;-61
2021/12/29 03:41:06;;;;;;;27.93;12.53;;;-0.90;99.90;;;;;;5089607;28;20649;-62
2021/12/29 03:43:35;;;;;;;26.97;11.57;;;-0.90;99.90;;;;;;5107320;28;20200;-61
2021/12/29 03:46:04;;;;;;;27.47;12.03;;;-0.90;99.90;;;;;;5100442;28;20176;-61
2021/12/29 03:48:32;;;;;;;25.77;11.67;;;-0.90;99.90;;;;;;5106234;28;20219;-62
2021/12/29 03:51:00;;;;;;;21.03;10.40;;;-0.90;99.90;;;;;;5098080;28;20199;-62
2021/12/29 03:53:28;;;;;;;25.27;10.53;;;-0.80;99.90;;;;;;5097948;28;20497;-62
2021/12/29 03:55:56;;;;;;;26.20;11.13;;;-0.80;99.90;;;;;;5100703;28;20232;-62
2021/12/29 03:58:26;;;;;;;21.00;9.50;;;-0.80;99.90;;;;;;5078963;28;20223;-62
2021/12/29 04:00:57;;;;;;;23.20;10.07;;;-0.80;99.90;;;;;;5096630;28;20234;-62
2021/12/29 04:03:24;;;;;;;23.50;10.63;;;-0.70;99.90;;;;;;5096075;28;20200;-60
2021/12/29 04:05:51;;;;;;;24.40;11.07;;;-0.80;99.90;;;;;;5105175;27;20199;-62
2021/12/29 04:08:19;;;;;;;27.20;12.20;;;-0.80;99.90;;;;;;5108702;28;20539;-62
2021/12/29 04:10:46;;;;;;;32.80;12.40;;;-0.80;99.90;;;;;;5094707;28;20196;-62
2021/12/29 04:13:13;;;;;;;29.63;12.50;;;-0.80;99.90;;;;;;5108794;28;20204;-61
2021/12/29 04:15:41;;;;;;;26.20;11.37;;;-0.70;99.90;;;;;;5104096;28;20254;-62
2021/12/29 04:18:17;;;;;;;25.53;11.47;;;-0.70;99.90;;;;;;5078029;28;20215;-62
2021/12/29 04:21:03;;;;;;;29.70;12.73;;;-0.80;99.90;;;;;;5110737;28;20203;-62
2021/12/29 04:23:32;;;;;;;24.07;11.47;;;-0.70;99.90;;;;;;5103911;28;20227;-62
2021/12/29 04:26:01;;;;;;;29.97;12.70;;;-0.70;99.90;;;;;;5088742;28;20208;-63
2021/12/29 04:28:29;;;;;;;31.07;12.60;;;-0.50;99.90;;;;;;5097537;28;20634;-63
2021/12/29 04:30:58;;;;;;;28.50;12.27;;;-0.70;99.90;;;;;;5103960;28;20293;-63
2021/12/29 04:33:28;;;;;;;29.67;11.90;;;-0.70;99.90;;;;;;5084187;28;20191;-62
2021/12/29 04:35:56;;;;;;;28.83;12.87;;;-0.70;99.90;;;;;;5102095;28;20188;-62
2021/12/29 04:38:24;;;;;;;29.40;12.80;;;-0.70;99.90;;;;;;5077879;28;20212;-63
2021/12/29 04:40:54;;;;;;;27.23;11.87;;;-0.70;99.90;;;;;;5104235;28;20612;-62
2021/12/29 04:43:22;;;;;;;25.83;11.20;;;-0.80;99.90;;;;;;5086701;28;20211;-62
2021/12/29 04:45:50;;;;;;;27.97;12.73;;;-0.70;99.90;;;;;;5086400;28;20570;-61
2021/12/29 04:48:18;;;;;;;27.10;11.63;;;-0.70;99.90;;;;;;5097840;28;20192;-62
2021/12/29 04:50:52;;;;;;;27.77;12.13;;;-0.50;99.90;;;;;;5099098;28;20192;-62
2021/12/29 04:53:21;;;;;;;35.53;13.67;;;-0.70;99.90;;;;;;5103848;28;20222;-62
2021/12/29 04:55:49;;;;;;;34.23;14.47;;;-0.70;99.90;;;;;;5098278;28;20191;-62
2021/12/29 04:58:20;;;;;;;40.97;16.00;;;-0.60;99.90;;;;;;5082226;28;20199;-62
2021/12/29 05:00:49;;;;;;;34.70;14.83;;;-0.70;99.90;;;;;;5102466;28;20686;-62
2021/12/29 05:03:17;;;;;;;29.27;12.90;;;-0.60;99.90;;;;;;5096339;28;20245;-62
2021/12/29 05:05:57;;;;;;;28.47;12.03;;;-0.60;99.90;;;;;;5072452;28;20590;-63
2021/12/29 05:08:25;;;;;;;28.40;12.53;;;-0.60;99.90;;;;;;5099949;28;20198;-63
2021/12/29 05:10:53;;;;;;;29.03;12.93;;;-0.60;99.90;;;;;;5108320;28;20680;-62
2021/12/29 05:13:20;;;;;;;29.27;12.47;;;-0.60;99.90;;;;;;5109167;28;20196;-63
2021/12/29 05:15:47;;;;;;;30.53;12.53;;;-0.60;99.90;;;;;;5099011;28;20270;-63
2021/12/29 05:18:14;;;;;;;23.80;11.50;;;-0.60;99.90;;;;;;5079194;28;20557;-62
2021/12/29 05:20:42;;;;;;;30.83;13.23;;;-0.60;99.90;;;;;;5100449;28;20574;-62
2021/12/29 05:23:10;;;;;;;24.33;11.60;;;-0.40;99.90;;;;;;5110021;28;20741;-63
2021/12/29 05:25:39;;;;;;;31.53;14.50;;;-0.60;99.90;;;;;;5090163;28;20618;-61
2021/12/29 05:28:06;;;;;;;25.77;11.90;;;-0.60;99.90;;;;;;5105729;28;20184;-61
2021/12/29 05:30:34;;;;;;;27.07;12.27;;;-0.50;99.90;;;;;;5090055;28;20207;-64
2021/12/29 05:33:01;;;;;;;29.97;13.00;;;-0.50;99.90;;;;;;5103712;28;20187;-61
2021/12/29 05:35:29;;;;;;;38.63;16.70;;;-0.50;99.90;;;;;;5099094;28;20195;-62
2021/12/29 05:37:57;;;;;;;38.10;16.07;;;-0.50;99.90;;;;;;5099695;28;20591;-62
2021/12/29 05:40:24;;;;;;;29.00;12.87;;;-0.50;99.90;;;;;;5107987;28;20202;-62
2021/12/29 05:42:52;;;;;;;35.87;15.57;;;-0.50;99.90;;;;;;5110890;28;20203;-63
2021/12/29 05:45:20;;;;;;;33.47;14.30;;;-0.50;99.90;;;;;;5100896;28;20199;-62
2021/12/29 05:47:47;;;;;;;31.30;13.53;;;-0.40;99.90;;;;;;5087995;28;20314;-62
2021/12/29 05:50:18;;;;;;;26.17;12.27;;;-0.50;99.90;;;;;;5105596;28;20185;-62
2021/12/29 05:52:45;;;;;;;26.73;12.13;;;-0.50;99.90;;;;;;5085492;28;20199;-64
2021/12/29 05:55:13;;;;;;;25.57;12.97;;;-0.50;99.90;;;;;;5106408;28;20189;-63
2021/12/29 05:57:41;;;;;;;31.50;13.77;;;-0.60;99.90;;;;;;5087705;28;20207;-62
2021/12/29 06:00:13;;;;;;;30.37;12.67;;;-0.50;99.90;;;;;;5102622;28;20195;-62
2021/12/29 06:02:40;;;;;;;26.90;12.07;;;-0.50;99.90;;;;;;5104107;28;20184;-63
2021/12/29 06:05:09;;;;;;;37.70;14.97;;;-0.50;99.90;;;;;;5094902;28;20188;-62
2021/12/29 06:07:37;;;;;;;30.20;12.67;;;-0.50;99.90;;;;;;5093602;28;20721;-63
2021/12/29 06:10:06;;;;;;;37.50;14.87;;;-0.50;99.90;;;;;;5091013;28;20207;-62
2021/12/29 06:12:33;;;;;;;33.23;14.90;;;-0.50;99.90;;;;;;5109898;28;20599;-61
2021/12/29 06:15:00;;;;;;;48.93;19.30;;;-0.50;99.90;;;;;;5109427;28;20209;-62
2021/12/29 06:17:28;;;;;;;36.00;15.33;;;-0.50;99.90;;;;;;5089861;28;20199;-62
2021/12/29 06:19:56;;;;;;;30.77;13.43;;;-0.50;99.90;;;;;;5107752;28;20199;-62
2021/12/29 06:22:23;;;;;;;30.47;13.73;;;-0.50;99.90;;;;;;5101622;28;20215;-62
2021/12/29 06:24:52;;;;;;;33.33;14.03;;;-0.50;99.90;;;;;;5100211;28;20188;-63
2021/12/29 06:27:20;;;;;;;29.90;13.87;;;-0.50;99.90;;;;;;5104076;28;20739;-63
2021/12/29 06:29:47;;;;;;;31.33;13.57;;;-0.50;99.90;;;;;;5107380;28;20581;-63
2021/12/29 06:32:14;;;;;;;34.70;13.73;;;-0.50;99.90;;;;;;5081946;28;20267;-62
2021/12/29 06:34:43;;;;;;;29.50;13.07;;;-0.40;99.90;;;;;;5095669;28;20249;-63
2021/12/29 06:37:12;;;;;;;30.07;13.27;;;-0.50;99.90;;;;;;5104842;28;20200;-61
2021/12/29 06:39:40;;;;;;;30.17;13.43;;;-0.50;99.90;;;;;;5084672;28;20284;-63
2021/12/29 06:42:08;;;;;;;33.53;13.53;;;-0.50;99.90;;;;;;5099361;28;20233;-64
2021/12/29 06:44:35;;;;;;;35.67;15.43;;;-0.50;99.90;;;;;;5092949;28;20211;-63
2021/12/29 06:47:03;;;;;;;29.83;13.43;;;-0.40;99.90;;;;;;5095046;28;20680;-62
2021/12/29 06:49:30;;;;;;;36.40;14.53;;;-0.60;99.90;;;;;;5086307;28;20310;-62
2021/12/29 06:52:00;;;;;;;33.70;14.67;;;-0.60;99.90;;;;;;5080479;28;20199;-63
2021/12/29 06:54:27;;;;;;;33.90;14.70;;;-0.50;99.90;;;;;;5097792;28;20271;-63
2021/12/29 06:56:54;;;;;;;32.90;13.73;;;-0.60;99.90;;;;;;5097815;28;20268;-63
2021/12/29 06:59:21;;;;;;;31.50;13.43;;;-0.60;99.90;;;;;;5097765;28;20267;-62
2021/12/29 07:01:51;;;;;;;28.60;13.23;;;-0.60;99.90;;;;;;5109280;28;20204;-63
2021/12/29 07:04:18;;;;;;;34.80;14.27;;;-0.60;99.90;;;;;;5092875;28;20256;-62
2021/12/29 07:06:46;;;;;;;32.63;12.90;;;-0.50;99.90;;;;;;5093447;28;20203;-62
2021/12/29 07:09:14;;;;;;;31.83;12.77;;;-0.50;99.90;;;;;;5102086;28;20200;-64
2021/12/29 07:11:42;;;;;;;34.17;13.60;;;-0.50;99.90;;;;;;5108945;28;20191;-62
2021/12/29 07:14:09;;;;;;;28.63;13.10;;;-0.50;99.90;;;;;;5108347;28;20199;-62
2021/12/29 07:16:38;;;;;;;32.13;13.50;;;-0.50;99.90;;;;;;5106249;28;20274;-62
2021/12/29 07:19:06;;;;;;;30.83;12.70;;;-0.50;99.90;;;;;;5108705;28;20831;-62
2021/12/29 07:21:33;;;;;;;33.53;13.37;;;-0.40;99.90;;;;;;5109199;28;20765;-63
2021/12/29 07:24:00;;;;;;;28.77;13.33;;;-0.50;99.90;;;;;;5111083;28;20225;-62
2021/12/29 07:26:29;;;;;;;28.97;13.50;;;-0.40;99.90;;;;;;5087578;28;20204;-62
2021/12/29 07:28:56;;;;;;;33.30;14.47;;;-0.40;99.90;;;;;;5091539;28;20195;-62
2021/12/29 07:31:25;;;;;;;31.67;13.60;;;-0.40;99.90;;;;;;5106224;28;20278;-62
2021/12/29 07:33:52;;;;;;;33.67;13.40;;;-0.40;99.90;;;;;;5084420;28;20223;-62
2021/12/29 07:36:19;;;;;;;36.70;14.90;;;-0.50;99.90;;;;;;5085430;28;20287;-62
2021/12/29 07:38:47;;;;;;;37.83;14.33;;;-0.40;99.90;;;;;;5090036;28;20196;-62
2021/12/29 07:41:14;;;;;;;33.90;14.53;;;-0.40;99.90;;;;;;5106026;28;20211;-63
2021/12/29 07:43:43;;;;;;;41.60;16.37;;;-0.30;99.90;;;;;;5089742;28;20284;-63
2021/12/29 07:46:12;;;;;;;38.90;14.70;;;-0.30;99.90;;;;;;5083392;28;20715;-61
2021/12/29 07:48:40;;;;;;;36.67;14.47;;;-0.30;99.90;;;;;;5106595;28;20187;-62
2021/12/29 07:51:08;;;;;;;39.17;14.40;;;-0.30;99.90;;;;;;5101776;28;20678;-61
2021/12/29 07:53:37;;;;;;;36.90;14.03;;;-0.40;99.90;;;;;;5104516;28;20658;-62
2021/12/29 07:56:07;;;;;;;34.10;14.23;;;-0.40;99.90;;;;;;5096999;28;20651;-63
2021/12/29 07:58:34;;;;;;;34.17;13.83;;;-0.30;99.90;;;;;;5093024;28;20200;-62
2021/12/29 08:01:04;;;;;;;45.80;16.80;;;-0.30;99.90;;;;;;5103883;28;20562;-62
2021/12/29 08:03:31;;;;;;;39.87;16.07;;;-0.30;99.90;;;;;;5095355;28;20195;-63
2021/12/29 08:05:58;;;;;;;31.30;13.57;;;-0.30;99.90;;;;;;5099926;28;20207;-62
2021/12/29 08:08:25;;;;;;;36.37;14.03;;;-0.20;99.90;;;;;;5098077;28;20198;-62
2021/12/29 08:10:55;;;;;;;43.53;15.77;;;-0.30;99.90;;;;;;5108526;28;20195;-62
2021/12/29 08:13:32;;;;;;;38.73;15.00;;;-0.30;99.90;;;;;;5105278;28;20282;-62
2021/12/29 08:15:59;;;;;;;33.60;13.83;;;-0.30;99.90;;;;;;5098240;28;20203;-64
2021/12/29 08:18:28;;;;;;;39.53;15.53;;;-0.20;99.90;;;;;;5085894;28;20203;-63
2021/12/29 08:20:55;;;;;;;36.87;14.10;;;-0.20;99.90;;;;;;5100824;28;20294;-63
2021/12/29 08:23:22;;;;;;;36.07;14.40;;;-0.20;99.90;;;;;;5097811;28;20224;-63
2021/12/29 08:25:58;;;;;;;39.63;14.40;;;-0.20;99.90;;;;;;5100561;28;20197;-62
2021/12/29 08:28:26;;;;;;;36.83;14.27;;;-0.10;99.90;;;;;;5107948;28;20188;-62
2021/12/29 08:30:54;;;;;;;36.27;14.60;;;-0.10;99.90;;;;;;5080732;28;20287;-63
2021/12/29 08:33:21;;;;;;;36.57;15.80;;;-0.10;99.90;;;;;;5100785;28;20239;-63
2021/12/29 08:35:50;;;;;;;46.07;15.93;;;0.00;99.90;;;;;;5098585;28;20204;-62
2021/12/29 08:38:17;;;;;;;41.87;15.67;;;0.00;99.90;;;;;;5105547;28;20280;-62
2021/12/29 08:40:45;;;;;;;40.80;16.37;;;0.00;99.90;;;;;;5092519;28;20197;-62
2021/12/29 08:43:14;;;;;;;42.47;17.20;;;0.00;99.90;;;;;;5105424;28;20216;-62
2021/12/29 08:45:42;;;;;;;50.27;18.87;;;0.00;99.90;;;;;;5081748;28;20231;-62
2021/12/29 08:48:10;;;;;;;42.10;16.57;;;0.10;99.90;;;;;;5094604;28;20195;-62
2021/12/29 08:50:37;;;;;;;50.57;19.23;;;0.10;99.90;;;;;;5084694;28;20249;-62
2021/12/29 08:53:08;;;;;;;46.50;17.77;;;0.10;99.90;;;;;;5099594;28;20264;-62
2021/12/29 08:55:37;;;;;;;39.50;15.73;;;0.10;99.90;;;;;;5101320;28;20662;-62
2021/12/29 08:58:06;;;;;;;43.50;16.30;;;0.10;99.90;;;;;;5096410;28;20233;-62
2021/12/29 09:00:35;;;;;;;34.87;13.87;;;0.10;99.90;;;;;;5091045;28;20243;-62
2021/12/29 09:03:02;;;;;;;41.10;14.87;;;0.20;99.90;;;;;;5098869;28;20284;-62
2021/12/29 09:05:29;;;;;;;49.60;18.27;;;0.10;99.90;;;;;;5083632;28;20200;-62
2021/12/29 09:07:57;;;;;;;52.77;19.13;;;0.00;99.90;;;;;;5102326;28;20226;-62
2021/12/29 09:10:25;;;;;;;44.70;16.43;;;0.00;99.90;;;;;;5095120;28;20275;-63
2021/12/29 09:12:52;;;;;;;45.10;16.47;;;0.00;99.90;;;;;;5083161;28;20588;-63
2021/12/29 09:15:20;;;;;;;50.20;18.47;;;0.00;99.90;;;;;;5108403;28;20195;-62
2021/12/29 09:17:48;;;;;;;47.03;17.07;;;0.00;99.90;;;;;;5091722;28;20203;-63
2021/12/29 09:20:24;;;;;;;56.97;19.83;;;0.00;99.90;;;;;;5101003;28;20183;-63
2021/12/29 09:22:52;;;;;;;39.80;16.83;;;0.00;99.90;;;;;;5100986;28;20718;-62
2021/12/29 09:25:20;;;;;;;53.60;19.30;;;0.00;99.90;;;;;;5093193;28;20270;-62
2021/12/29 09:27:50;;;;;;;48.13;18.00;;;0.00;99.90;;;;;;5095904;28;20196;-62
2021/12/29 09:30:19;;;;;;;42.63;16.03;;;0.00;99.90;;;;;;5107207;28;20275;-63
2021/12/29 09:32:46;;;;;;;52.77;18.53;;;0.00;99.90;;;;;;5080236;28;20688;-62
2021/12/29 09:35:16;;;;;;;39.97;16.10;;;0.10;99.90;;;;;;5093749;28;20653;-62
2021/12/29 09:37:44;;;;;;;48.00;18.20;;;0.00;99.90;;;;;;5098888;28;20192;-63
2021/12/29 09:40:14;;;;;;;45.17;17.03;;;0.00;99.90;;;;;;5075994;28;20547;-63
2021/12/29 09:42:41;;;;;;;42.03;16.97;;;0.00;99.90;;;;;;5100157;28;20207;-63
2021/12/29 09:45:11;;;;;;;56.13;19.43;;;0.10;99.90;;;;;;5096521;28;20293;-63
2021/12/29 09:47:38;;;;;;;48.17;17.50;;;0.10;99.90;;;;;;5096280;28;20196;-63
2021/12/29 09:50:09;;;;;;;40.87;15.37;;;0.10;99.90;;;;;;5107596;28;20199;-63
2021/12/29 09:52:36;;;;;;;51.17;18.37;;;0.10;99.90;;;;;;5099319;28;20189;-63
2021/12/29 09:55:07;;;;;;;36.93;14.77;;;0.10;99.90;;;;;;5102124;28;20670;-63
2021/12/29 09:57:35;;;;;;;53.70;19.33;;;0.20;99.90;;;;;;5105385;28;20199;-62
2021/12/29 10:00:03;;;;;;;65.20;21.50;;;0.30;99.90;;;;;;5097269;28;20546;-63
2021/12/29 10:02:37;;;;;;;61.60;20.53;;;0.20;99.90;;;;;;5105434;28;20243;-63
2021/12/29 10:05:05;;;;;;;47.10;17.40;;;0.30;99.90;;;;;;5095040;28;20189;-62
2021/12/29 10:07:32;;;;;;;53.67;19.07;;;0.30;99.90;;;;;;5090535;28;20286;-63
2021/12/29 10:09:59;;;;;;;52.53;18.30;;;0.40;99.90;;;;;;5107734;28;20207;-63
2021/12/29 10:12:27;;;;;;;43.40;17.37;;;0.30;99.90;;;;;;5106016;28;20195;-63
2021/12/29 10:14:57;;;;;;;47.50;17.33;;;0.30;99.90;;;;;;5086034;28;20531;-63
2021/12/29 10:17:26;;;;;;;46.37;17.87;;;0.20;99.90;;;;;;5107131;28;20278;-63
2021/12/29 10:20:06;;;;;;;52.97;18.93;;;0.30;99.90;;;;;;5103440;28;20237;-62
2021/12/29 10:22:35;;;;;;;61.80;21.43;;;0.20;99.90;;;;;;5107309;28;20727;-63
2021/12/29 10:25:08;;;;;;;57.87;22.70;;;0.30;99.90;;;;;;5088978;28;20204;-63
2021/12/29 10:27:39;;;;;;;46.57;18.60;;;0.30;99.90;;;;;;5111631;28;20191;-62
2021/12/29 10:30:18;;;;;;;55.00;20.53;;;0.40;99.90;;;;;;5088459;28;20208;-63
2021/12/29 10:32:46;;;;;;;56.57;20.03;;;0.30;99.90;;;;;;5088230;28;20279;-63
2021/12/29 10:35:23;;;;;;;51.43;19.80;;;0.40;99.90;;;;;;5091579;28;20211;-63
2021/12/29 10:37:52;;;;;;;66.87;24.80;;;0.40;99.90;;;;;;5105091;28;20192;-62
2021/12/29 10:40:28;;;;;;;61.77;22.90;;;0.50;99.90;;;;;;5107343;28;20200;-63
2021/12/29 10:42:57;;;;;;;55.13;19.23;;;0.50;99.90;;;;;;5091188;28;20582;-63
2021/12/29 10:45:32;;;;;;;44.57;17.00;;;0.50;99.90;;;;;;5096923;28;20204;-62
2021/12/29 10:48:00;;;;;;;49.50;19.40;;;0.50;99.90;;;;;;5101611;28;20184;-62
2021/12/29 10:50:29;;;;;;;48.00;18.17;;;0.50;99.90;;;;;;5085576;28;20617;-63
2021/12/29 10:52:58;;;;;;;43.33;16.97;;;0.50;99.90;;;;;;5102504;28;20200;-61
2021/12/29 10:55:32;;;;;;;41.27;16.17;;;0.50;99.90;;;;;;5078939;28;20265;-62
2021/12/29 10:58:06;;;;;;;42.90;16.13;;;0.50;99.90;;;;;;5099609;28;20237;-61
2021/12/29 11:00:35;;;;;;;40.07;16.20;;;0.60;99.90;;;;;;5098486;28;20200;-61
2021/12/29 11:03:14;;;;;;;39.03;15.37;;;0.60;99.90;;;;;;5105671;28;20204;-62
2021/12/29 11:05:47;;;;;;;57.10;19.67;;;0.60;99.90;;;;;;5092323;28;20200;-62
2021/12/29 11:08:15;;;;;;;48.60;18.30;;;0.60;99.90;;;;;;5099131;28;20188;-61
2021/12/29 11:10:43;;;;;;;57.07;20.57;;;0.50;99.90;;;;;;5085809;28;20540;-61
2021/12/29 11:13:12;;;;;;;44.97;16.87;;;0.50;99.90;;;;;;5081088;28;20211;-62
2021/12/29 11:15:42;;;;;;;49.27;17.90;;;0.50;99.90;;;;;;5091543;28;20663;-62
2021/12/29 11:18:13;;;;;;;46.70;17.27;;;0.60;99.90;;;;;;5092135;28;20360;-62
2021/12/29 11:20:41;;;;;;;45.67;17.40;;;0.60;99.90;;;;;;5110841;28;20221;-61
2021/12/29 11:23:12;;;;;;;48.90;18.67;;;0.50;99.90;;;;;;5108761;28;20236;-62
2021/12/29 11:25:41;;;;;;;46.20;18.20;;;0.50;99.90;;;;;;5107968;28;20233;-62
2021/12/29 11:28:21;;;;;;;35.30;15.00;;;0.50;99.90;;;;;;5091888;28;20287;-63
2021/12/29 11:30:48;;;;;;;42.87;16.30;;;0.50;99.90;;;;;;5076643;28;20298;-61
2021/12/29 11:33:15;;;;;;;35.60;15.13;;;0.50;99.90;;;;;;5100198;28;20598;-61
2021/12/29 11:35:47;;;;;;;28.67;12.67;;;0.50;99.90;;;;;;5098734;28;20197;-61
2021/12/29 11:38:14;;;;;;;34.20;13.37;;;0.50;99.90;;;;;;5106321;28;20200;-61
2021/12/29 11:40:45;;;;;;;36.87;14.50;;;0.60;99.90;;;;;;5098371;28;20188;-63
2021/12/29 11:43:14;;;;;;;32.47;13.63;;;0.60;99.90;;;;;;5106751;28;20224;-61
2021/12/29 11:45:42;;;;;;;44.17;16.07;;;0.60;99.90;;;;;;5103306;28;20329;-61
2021/12/29 11:48:11;;;;;;;42.43;15.30;;;0.60;99.90;;;;;;5091497;28;20207;-61
2021/12/29 11:50:40;;;;;;;31.03;14.17;;;0.60;99.90;;;;;;5090566;28;20215;-61
2021/12/29 11:53:28;;;;;;;39.53;15.30;;;0.60;99.90;;;;;;5106365;28;20206;-61
2021/12/29 11:55:59;;;;;;;50.83;19.10;;;0.60;99.90;;;;;;5104463;28;20199;-61
2021/12/29 11:58:28;;;;;;;43.70;16.13;;;0.50;99.90;;;;;;5098638;28;20191;-61
2021/12/29 12:01:07;;;;;;;44.70;17.80;;;0.50;99.90;;;;;;5090948;28;20200;-62
2021/12/29 12:03:48;;;;;;;39.33;15.47;;;0.50;99.90;;;;;;5099776;28;20685;-62
2021/12/29 12:06:28;;;;;;;37.33;13.47;;;0.50;99.90;;;;;;5079651;28;20269;-62
2021/12/29 12:09:10;;;;;;;41.07;16.10;;;0.50;99.90;;;;;;5097479;28;20199;-62
2021/12/29 12:11:38;;;;;;;31.20;12.97;;;0.50;99.90;;;;;;5103783;28;20183;-61
2021/12/29 12:14:16;;;;;;;37.70;15.40;;;0.50;99.90;;;;;;5105061;28;20188;-61
2021/12/29 12:16:49;;;;;;;31.07;12.47;;;0.50;99.90;;;;;;5080942;28;20299;-61
2021/12/29 12:19:19;;;;;;;46.73;16.67;;;0.50;99.90;;;;;;5083087;28;20192;-61
2021/12/29 12:21:47;;;;;;;38.30;15.17;;;0.50;99.90;;;;;;5082793;28;20200;-60
2021/12/29 12:24:18;;;;;;;46.67;17.67;;;0.50;99.90;;;;;;5098653;28;20244;-61
2021/12/29 12:26:50;;;;;;;49.30;18.40;;;0.50;99.90;;;;;;5102602;28;20658;-61
2021/12/29 12:29:18;;;;;;;42.17;16.00;;;0.50;99.90;;;;;;5105423;28;20187;-61
2021/12/29 12:31:59;;;;;;;42.83;15.90;;;0.40;99.90;;;;;;5099419;28;20697;-62
2021/12/29 12:34:26;;;;;;;38.50;16.50;;;0.40;99.90;;;;;;5103002;28;20241;-61
2021/12/29 12:36:53;;;;;;;41.83;15.70;;;0.40;99.90;;;;;;5099972;28;20196;-62
2021/12/29 12:39:23;;;;;;;33.97;15.17;;;0.40;99.90;;;;;;5090214;28;20210;-61
2021/12/29 12:41:56;;;;;;;38.23;14.90;;;0.40;99.90;;;;;;5112606;27;20249;-61